Time;durP1;ratioP1;P1;durP2;ratioP2;P2;SDS_P1;SDS_P2;PMS_P1;PMS_P2;Temp;Humidity;BMP_temperature;BMP_pressure;BME280_temperature;BME280_humidity;BME280_pressure;Samples;Min_cycle;Max_cycle;Signal;HPM_P1;HPM_P2
2022/02/01 00:00:24;;;;;;;12.98;2.88;;;;;;;2.48;92.63;102170.66;5050754;28;20473;-35
2022/02/01 00:02:55;;;;;;;16.40;2.90;;;;;;;2.42;93.06;102157.91;5052520;28;20045;-35
2022/02/01 00:05:40;;;;;;;9.60;2.03;;;;;;;2.43;92.74;102163.09;5054559;28;20061;-35
2022/02/01 00:13:28;;;;;;;13.07;2.45;;;;;;;2.39;93.11;102182.22;5054363;28;20041;-35
2022/02/01 00:37:23;;;;;;;11.00;2.40;;;;;;;2.19;93.54;102190.25;5056621;28;20053;-34
2022/02/01 00:39:56;;;;;;;17.77;3.80;;;;;;;2.21;93.89;102198.16;5056949;28;20025;-34
2022/02/01 00:42:21;;;;;;;13.95;3.05;;;;;;;2.15;94.25;102194.22;5056233;28;20040;-35
2022/02/01 00:44:47;;;;;;;12.63;2.30;;;;;;;2.25;93.81;102196.88;5055987;28;20025;-35
2022/02/01 00:47:12;;;;;;;17.83;3.63;;;;;;;2.24;93.67;102190.69;5056264;28;20032;-35
2022/02/01 00:49:38;;;;;;;14.97;2.83;;;;;;;2.24;93.93;102198.69;5056137;28;20248;-35
2022/02/01 00:52:04;;;;;;;12.00;2.65;;;;;;;2.24;94.02;102197.84;5055962;28;20284;-35
2022/02/01 00:54:30;;;;;;;13.00;2.80;;;;;;;2.27;94.06;102202.91;5056281;28;20078;-35
2022/02/01 00:56:55;;;;;;;11.43;2.33;;;;;;;2.14;93.75;102178.34;5055720;28;20025;-35
2022/02/01 00:59:20;;;;;;;16.33;2.33;;;;;;;2.28;94.15;102194.75;5055690;28;20112;-35
2022/02/01 01:01:46;;;;;;;13.07;2.30;;;;;;;2.32;94.27;102184.63;5055932;28;20020;-35
2022/02/01 01:04:11;;;;;;;13.20;2.47;;;;;;;2.20;94.10;102151.09;5056167;28;20388;-35
2022/02/01 01:06:37;;;;;;;8.27;2.00;;;;;;;2.31;93.73;102175.78;5056373;28;20445;-35
2022/02/01 01:09:03;;;;;;;6.43;2.17;;;;;;;2.30;94.08;102176.78;5055704;28;20028;-36
2022/02/01 01:11:29;;;;;;;11.35;2.30;;;;;;;2.30;93.48;102154.59;5055409;28;20033;-35
2022/02/01 01:43:44;;;;;;;11.63;2.35;;;;;;;2.17;94.48;102146.88;5055382;28;20051;-36
2022/02/01 01:54:04;;;;;;;12.40;2.17;;;;;;;2.12;94.40;102159.81;5054639;28;20409;-35
2022/02/01 01:56:31;;;;;;;15.55;2.35;;;;;;;2.28;94.35;102188.56;5054597;28;20123;-35
2022/02/01 01:58:57;;;;;;;13.30;2.45;;;;;;;2.29;94.39;102180.44;5054443;28;20028;-35
2022/02/01 02:01:22;;;;;;;10.10;2.42;;;;;;;2.28;94.37;102154.72;5054784;28;20029;-35
2022/02/01 02:03:49;;;;;;;7.70;2.17;;;;;;;2.25;94.52;102156.84;5054976;28;20028;-35
2022/02/01 02:06:16;;;;;;;14.98;3.65;;;;;;;2.20;94.32;102173.28;5054653;28;20329;-35
2022/02/01 02:08:45;;;;;;;12.40;2.78;;;;;;;2.20;94.70;102188.47;5054216;28;20476;-35
2022/02/01 02:11:15;;;;;;;15.57;2.75;;;;;;;2.27;94.42;102189.56;5054418;28;20385;-36
2022/02/01 02:16:37;;;;;;;10.25;2.40;;;;;;;2.20;94.32;102137.75;5055011;28;20040;-36
2022/02/01 02:19:04;;;;;;;11.00;3.08;;;;;;;2.31;94.88;102167.78;5054093;28;20438;-33
2022/02/01 02:21:29;;;;;;;16.08;2.85;;;;;;;2.30;94.78;102170.59;5054420;28;20108;-35
2022/02/01 02:23:55;;;;;;;9.40;2.23;;;;;;;2.14;94.35;102157.81;5054238;28;20504;-35
2022/02/01 02:26:20;;;;;;;12.23;2.47;;;;;;;2.37;94.52;102189.53;5054057;28;20053;-35
2022/02/01 02:28:47;;;;;;;10.27;2.27;;;;;;;2.38;94.61;102180.53;5054428;28;20025;-35
2022/02/01 02:31:12;;;;;;;11.82;2.53;;;;;;;2.39;94.92;102179.53;5054112;28;20025;-34
2022/02/01 02:33:39;;;;;;;13.98;2.75;;;;;;;2.40;94.55;102181.25;5054012;28;20037;-34
2022/02/01 02:36:12;;;;;;;10.48;2.55;;;;;;;2.36;94.41;102162.00;5054160;28;20381;-35
2022/02/01 02:46:22;;;;;;;14.10;2.33;;;;;;;2.25;94.72;102127.50;5053661;28;20127;-35
2022/02/01 02:48:47;;;;;;;6.22;1.95;;;;;;;2.42;94.71;102150.75;5053919;28;20079;-36
2022/02/01 02:51:12;;;;;;;12.47;2.23;;;;;;;2.44;94.86;102153.25;5054346;28;20024;-35
2022/02/01 02:53:38;;;;;;;11.70;2.10;;;;;;;2.47;94.89;102147.63;5054283;28;20048;-34
2022/02/01 02:56:07;;;;;;;8.30;1.90;;;;;;;2.46;94.80;102140.63;5053479;28;20154;-34
2022/02/01 02:58:32;;;;;;;9.52;2.72;;;;;;;2.42;94.82;102123.19;5053662;28;20064;-35
2022/02/01 03:00:58;;;;;;;15.60;2.67;;;;;;;2.46;95.01;102122.75;5053936;28;20020;-34
2022/02/01 03:03:24;;;;;;;9.83;1.90;;;;;;;2.54;94.95;102138.06;5053374;28;20485;-35
2022/02/01 03:05:49;;;;;;;9.98;2.30;;;;;;;2.56;94.61;102136.06;5053843;28;20025;-35
2022/02/01 03:08:15;;;;;;;8.77;2.30;;;;;;;2.57;94.26;102149.28;5053472;28;20385;-35
2022/02/01 03:10:43;;;;;;;15.47;1.83;;;;;;;2.59;94.81;102149.16;5053572;28;20021;-34
2022/02/01 03:13:13;;;;;;;9.77;2.67;;;;;;;2.58;94.50;102150.13;5053576;28;20036;-35
2022/02/01 03:16:27;;;;;;;9.93;1.98;;;;;;;2.60;94.91;102129.47;5053384;28;20044;-34
2022/02/01 03:21:14;;;;;;;10.23;1.75;;;;;;;2.53;95.00;102099.81;5053225;28;20047;-34
2022/02/01 03:23:39;;;;;;;8.30;2.27;;;;;;;2.63;94.82;102102.44;5053125;28;20033;-34
2022/02/01 03:26:04;;;;;;;7.83;2.20;;;;;;;2.49;94.52;102076.22;5054061;28;20070;-36
2022/02/01 03:28:30;;;;;;;9.83;2.10;;;;;;;2.65;94.95;102097.81;5053441;28;20032;-35
2022/02/01 03:30:56;;;;;;;9.07;1.90;;;;;;;2.65;95.70;102091.63;5052922;28;20108;-35
2022/02/01 03:33:22;;;;;;;10.93;2.05;;;;;;;2.58;95.66;102086.84;5053040;28;20081;-35
2022/02/01 03:35:47;;;;;;;10.80;2.17;;;;;;;2.57;95.51;102071.00;5053156;28;20065;-35
2022/02/01 03:38:12;;;;;;;12.37;2.07;;;;;;;2.50;95.70;102056.56;5052764;28;20053;-36
2022/02/01 03:40:38;;;;;;;12.77;2.33;;;;;;;2.61;95.50;102069.72;5053289;28;20067;-36
2022/02/01 03:43:03;;;;;;;11.95;2.42;;;;;;;2.59;95.76;102061.03;5052952;28;20029;-35
2022/02/01 03:45:29;;;;;;;8.33;1.73;;;;;;;2.47;96.04;102039.00;5052994;28;20029;-35
2022/02/01 03:47:54;;;;;;;10.70;2.10;;;;;;;2.64;96.06;102079.28;5052630;28;20031;-35
2022/02/01 03:50:19;;;;;;;11.87;2.17;;;;;;;2.63;95.78;102061.53;5053447;28;20075;-35
2022/02/01 03:52:45;;;;;;;8.87;1.70;;;;;;;2.52;96.45;102031.38;5052829;28;20102;-36
2022/02/01 03:55:10;;;;;;;17.53;3.57;;;;;;;2.60;96.97;102041.34;5053339;28;20021;-36
2022/02/01 03:57:35;;;;;;;9.50;1.90;;;;;;;2.61;97.06;102047.50;5052875;28;20036;-36
2022/02/01 04:00:02;;;;;;;11.30;2.30;;;;;;;2.62;97.04;102044.69;5052712;28;20025;-36
2022/02/01 04:02:27;;;;;;;12.40;2.55;;;;;;;2.63;96.89;102048.19;5052830;28;20350;-36
2022/02/01 04:04:53;;;;;;;14.17;2.40;;;;;;;2.54;96.86;102025.91;5053109;28;20083;-36
2022/02/01 04:07:20;;;;;;;9.32;2.05;;;;;;;2.61;96.95;102036.81;5052756;28;20040;-36
2022/02/01 04:09:48;;;;;;;13.32;2.70;;;;;;;2.57;96.86;102030.94;5052792;28;20481;-36
2022/02/01 04:12:13;;;;;;;11.43;2.25;;;;;;;2.65;96.73;102033.72;5053020;28;20055;-36
2022/02/01 04:14:39;;;;;;;9.03;2.40;;;;;;;2.58;96.68;102021.94;5052784;28;20547;-35
2022/02/01 04:17:06;;;;;;;10.30;2.57;;;;;;;2.66;96.65;102040.72;5052363;28;20059;-35
2022/02/01 04:19:32;;;;;;;13.63;2.97;;;;;;;2.61;96.98;102035.00;5053126;28;20025;-35
2022/02/01 04:22:02;;;;;;;12.40;2.13;;;;;;;2.58;97.19;102029.94;5052589;28;20036;-35
2022/02/01 04:24:29;;;;;;;12.50;2.33;;;;;;;2.55;96.73;102027.59;5052604;28;20044;-35
2022/02/01 04:26:55;;;;;;;10.07;2.85;;;;;;;2.65;96.86;102036.38;5053272;28;20052;-35
2022/02/01 04:29:21;;;;;;;10.32;3.05;;;;;;;2.66;96.65;102040.72;5052872;28;20025;-35
2022/02/01 04:31:47;;;;;;;13.52;2.53;;;;;;;2.68;96.81;102049.41;5052978;28;20029;-35
2022/02/01 04:34:12;;;;;;;12.60;2.38;;;;;;;2.70;96.50;102046.63;5052667;28;20132;-35
2022/02/01 04:36:38;;;;;;;12.10;2.03;;;;;;;2.69;96.47;102036.94;5052397;28;20612;-35
2022/02/01 04:39:04;;;;;;;10.45;2.35;;;;;;;2.61;96.71;102026.16;5052423;28;20094;-35
2022/02/01 04:41:30;;;;;;;14.38;2.42;;;;;;;2.63;96.19;102024.16;5052321;28;20055;-35
2022/02/01 04:43:58;;;;;;;10.00;2.45;;;;;;;2.70;96.28;102026.09;5052406;28;20144;-35
2022/02/01 04:46:24;;;;;;;13.40;3.42;;;;;;;2.75;95.98;102020.28;5053058;28;20031;-35
2022/02/01 04:48:49;;;;;;;11.35;3.00;;;;;;;2.76;95.67;102017.47;5054161;28;20472;-36
2022/02/01 04:51:16;;;;;;;12.17;3.00;;;;;;;2.77;95.65;102015.63;5056430;28;20033;-36
2022/02/01 04:53:43;;;;;;;10.38;2.67;;;;;;;2.80;95.80;102029.53;5055901;28;20025;-35
2022/02/01 04:56:08;;;;;;;10.82;3.15;;;;;;;2.74;95.58;102021.28;5055780;28;20155;-36
2022/02/01 04:58:34;;;;;;;15.10;4.30;;;;;;;2.75;95.23;102026.47;5056002;28;20071;-36
2022/02/01 05:01:00;;;;;;;11.03;2.53;;;;;;;2.74;95.77;102011.44;5055128;28;20036;-36
2022/02/01 05:03:25;;;;;;;;;;;;;;;2.86;95.69;102020.06;5055997;28;20437;-36
2022/02/01 05:05:50;;;;;;;11.37;3.17;;;;;;;2.79;95.44;101994.97;5056554;28;20003;-36
2022/02/01 05:08:16;;;;;;;12.07;3.17;;;;;;;2.78;95.49;101991.44;5056319;28;20275;-36
2022/02/01 05:10:43;;;;;;;16.50;3.80;;;;;;;2.91;95.81;102014.25;5055288;28;20025;-36
2022/02/01 05:16:06;;;;;;;10.73;3.00;;;;;;;2.93;95.98;102006.91;5056030;28;20108;-36
2022/02/01 05:18:46;;;;;;;16.02;3.45;;;;;;;2.93;96.04;101986.41;5055865;28;20025;-36
2022/02/01 05:21:19;;;;;;;17.58;4.55;;;;;;;2.86;96.23;101960.44;5055739;28;20025;-35
2022/02/01 05:23:45;;;;;;;14.93;3.70;;;;;;;2.92;96.60;101959.84;5055529;28;20044;-36
2022/02/01 05:26:10;;;;;;;13.57;4.10;;;;;;;2.91;96.60;101955.47;5055441;28;20104;-35
2022/02/01 05:28:37;;;;;;;18.97;4.23;;;;;;;2.96;96.39;101956.69;5055957;28;20369;-35
2022/02/01 05:31:03;;;;;;;15.98;4.50;;;;;;;2.96;96.43;101951.34;5056104;28;20340;-35
2022/02/01 05:33:29;;;;;;;16.85;3.85;;;;;;;2.98;96.88;101944.03;5054977;28;20091;-36
2022/02/01 05:35:55;;;;;;;14.32;4.10;;;;;;;2.91;97.29;101920.75;5056030;28;20079;-35
2022/02/01 05:38:21;;;;;;;18.63;4.05;;;;;;;2.97;96.95;101922.78;5055140;28;20060;-36
2022/02/01 05:40:46;;;;;;;21.03;5.27;;;;;;;3.00;96.88;101925.16;5055273;28;20033;-36
2022/02/01 05:43:17;;;;;;;16.83;4.70;;;;;;;2.98;97.76;101927.16;5055699;28;20052;-35
2022/02/01 05:45:42;;;;;;;15.05;4.55;;;;;;;2.95;97.63;101924.78;5055433;28;20495;-36
2022/02/01 05:48:12;;;;;;;18.97;5.13;;;;;;;2.92;97.99;101914.41;5055395;28;20112;-35
2022/02/01 05:50:38;;;;;;;16.13;3.97;;;;;;;3.00;97.86;101925.16;5055600;28;20031;-35
2022/02/01 05:53:03;;;;;;;20.30;5.63;;;;;;;2.92;98.33;101899.22;5055207;28;20116;-36
2022/02/01 05:55:30;;;;;;;19.70;5.43;;;;;;;2.94;98.26;101888.41;5055267;28;20119;-35
2022/02/01 05:57:55;;;;;;;18.15;5.80;;;;;;;3.04;98.67;101899.81;5054609;28;20037;-35
2022/02/01 06:00:21;;;;;;;18.90;5.60;;;;;;;3.05;98.90;101896.97;5053938;28;20039;-35
2022/02/01 06:02:47;;;;;;;18.70;4.77;;;;;;;3.05;98.58;101896.16;5054796;28;20047;-36
2022/02/01 06:05:15;;;;;;;27.15;5.82;;;;;;;3.08;99.08;101893.19;5054921;28;20067;-35
2022/02/01 06:07:40;;;;;;;17.40;4.97;;;;;;;3.07;99.10;101887.00;5054944;28;20025;-36
2022/02/01 06:10:06;;;;;;;23.63;5.93;;;;;;;3.07;99.72;101880.78;5054745;28;20032;-36
2022/02/01 06:12:42;;;;;;;20.38;7.07;;;;;;;3.08;99.67;101875.31;5054519;28;20025;-36
2022/02/01 06:15:09;;;;;;;22.15;6.57;;;;;;;3.07;99.90;101876.31;5054861;28;20098;-36
2022/02/01 06:17:35;;;;;;;15.85;6.07;;;;;;;3.08;100.00;101869.97;5054220;28;20032;-36
2022/02/01 06:20:02;;;;;;;21.50;6.30;;;;;;;3.12;100.00;101873.13;5054752;28;20381;-36
2022/02/01 06:22:28;;;;;;;20.30;6.75;;;;;;;3.12;100.00;101865.13;5054856;28;20033;-35
2022/02/01 06:24:53;;;;;;;21.27;7.07;;;;;;;3.06;100.00;101852.38;5054808;28;20492;-36
2022/02/01 06:27:19;;;;;;;15.82;5.70;;;;;;;3.14;100.00;101857.78;5054303;28;20307;-35
2022/02/01 06:29:44;;;;;;;20.70;7.43;;;;;;;3.16;100.00;101847.78;5054808;28;20036;-35
2022/02/01 06:32:10;;;;;;;23.87;7.60;;;;;;;3.19;100.00;101865.34;5054191;28;20544;-35
2022/02/01 06:34:35;;;;;;;26.23;7.67;;;;;;;3.20;100.00;101849.13;5054066;28;20022;-35
2022/02/01 06:37:00;;;;;;;20.50;7.17;;;;;;;3.22;100.00;101847.16;5052689;28;20047;-35
2022/02/01 06:39:27;;;;;;;20.57;7.40;;;;;;;3.18;100.00;101843.13;5054660;28;20025;-35
2022/02/01 06:41:52;;;;;;;;;;;;;;;3.27;100.00;101850.19;5054699;28;20075;-35
2022/02/01 06:44:18;;;;;;;20.67;8.95;;;;;;;3.29;100.00;101847.34;5054504;28;19917;-35
2022/02/01 06:46:43;;;;;;;19.63;8.13;;;;;;;3.31;100.00;101842.69;5053729;28;20055;-35
2022/02/01 06:49:11;;;;;;;24.33;9.10;;;;;;;3.34;100.00;101842.38;5053996;28;20044;-35
2022/02/01 06:51:42;;;;;;;26.20;8.52;;;;;;;3.27;100.00;101820.78;5053796;28;20474;-35
2022/02/01 06:54:07;;;;;;;23.83;8.88;;;;;;;3.28;100.00;101809.09;5053798;28;20117;-35
2022/02/01 06:56:33;;;;;;;26.77;10.67;;;;;;;3.40;100.00;101840.88;5053517;28;20108;-35
2022/02/01 06:59:00;;;;;;;26.45;10.93;;;;;;;3.41;100.00;101835.38;5053997;28;20024;-35
2022/02/01 07:01:27;;;;;;;28.80;12.88;;;;;;;3.44;100.00;101832.38;5053899;28;20029;-35
2022/02/01 07:03:52;;;;;;;28.35;12.80;;;;;;;3.41;100.00;101819.31;5053682;28;20158;-35
2022/02/01 07:06:18;;;;;;;26.10;12.60;;;;;;;3.43;100.00;101813.84;5054006;28;20162;-35
2022/02/01 07:08:45;;;;;;;24.80;13.70;;;;;;;3.46;100.00;101805.47;5053581;28;20025;-35
2022/02/01 07:11:11;;;;;;;39.40;16.70;;;;;;;3.52;100.00;101820.91;5053747;28;20471;-35
2022/02/01 07:13:37;;;;;;;31.05;16.92;;;;;;;3.56;100.00;101806.19;5053380;28;20421;-35
2022/02/01 07:16:06;;;;;;;35.00;17.95;;;;;;;3.54;100.00;101800.19;5052128;28;20037;-35
2022/02/01 07:18:32;;;;;;;35.88;19.60;;;;;;;3.57;100.00;101799.88;5053376;28;20025;-36
2022/02/01 07:20:57;;;;;;;41.25;20.88;;;;;;;3.56;100.00;101793.69;5053664;28;20060;-35
2022/02/01 07:23:25;;;;;;;39.78;21.02;;;;;;;3.59;100.00;101804.03;5053404;28;20441;-34
2022/02/01 07:25:52;;;;;;;43.92;21.77;;;;;;;3.58;100.00;101805.03;5053826;28;20112;-34
2022/02/01 07:28:19;;;;;;;41.70;23.33;;;;;;;3.53;100.00;101777.13;5052978;28;20425;-35
2022/02/01 07:30:46;;;;;;;40.00;24.08;;;;;;;3.63;100.00;101799.22;5053009;28;20490;-35
2022/02/01 07:33:11;;;;;;;43.13;25.83;;;;;;;3.61;100.00;101796.69;5053325;28;20024;-35
2022/02/01 07:35:37;;;;;;;43.60;24.60;;;;;;;3.65;100.00;101809.72;5053916;28;20032;-36
2022/02/01 07:38:03;;;;;;;;;;;;;;;3.66;100.00;101796.22;5053187;28;20053;-36
2022/02/01 07:40:29;;;;;;;41.45;25.15;;;;;;;3.63;100.00;101796.53;5053407;28;19974;-35
2022/02/01 07:42:55;;;;;;;40.83;23.95;;;;;;;3.62;100.00;101794.88;5053080;28;20058;-35
2022/02/01 07:45:24;;;;;;;39.67;27.52;;;;;;;3.47;100.00;101767.91;5053378;28;20029;-35
2022/02/01 07:47:50;;;;;;;38.15;24.38;;;;;;;3.51;100.00;101779.94;5052644;28;20021;-36
2022/02/01 07:50:15;;;;;;;39.15;24.27;;;;;;;3.60;100.00;101780.78;5053260;28;20530;-36
2022/02/01 07:52:41;;;;;;;44.53;27.57;;;;;;;3.62;100.00;101773.47;5052821;28;20021;-36
2022/02/01 07:55:07;;;;;;;43.37;29.03;;;;;;;3.61;100.00;101769.97;5053316;28;20033;-34
2022/02/01 07:57:32;;;;;;;48.90;30.40;;;;;;;3.60;100.00;101764.75;5053229;28;20032;-34
2022/02/01 07:59:57;;;;;;;38.97;25.60;;;;;;;3.62;100.00;101765.44;5052740;28;20327;-35
2022/02/01 08:02:24;;;;;;;39.33;26.53;;;;;;;3.52;100.00;101727.31;5053289;28;20385;-35
2022/02/01 08:04:53;;;;;;;47.00;26.60;;;;;;;3.49;100.00;101711.56;5052684;28;20032;-34
2022/02/01 08:07:20;;;;;;;36.80;26.65;;;;;;;3.62;100.00;101741.38;5053090;28;20112;-34
2022/02/01 08:09:48;;;;;;;38.08;26.52;;;;;;;3.52;100.00;101725.47;5053208;28;20025;-35
2022/02/01 08:17:35;;;;;;;30.45;22.52;;;;;;;3.63;100.00;101745.72;5053466;28;20539;-35
2022/02/01 08:20:03;;;;;;;35.28;23.80;;;;;;;3.65;100.00;101738.34;5053473;28;20436;-34
2022/02/01 08:25:16;;;;;;;32.85;24.48;;;;;;;3.60;100.00;101724.63;5057489;28;20041;-35
2022/02/01 08:27:44;;;;;;;30.88;22.35;;;;;;;3.67;100.00;101733.69;5056589;28;20036;-35
2022/02/01 08:30:11;;;;;;;32.80;24.55;;;;;;;3.64;100.00;101730.50;5057156;28;20495;-35
2022/02/01 08:32:38;;;;;;;30.98;23.63;;;;;;;3.47;100.00;101695.69;5056743;28;20025;-35
2022/02/01 08:35:04;;;;;;;33.08;25.67;;;;;;;3.59;100.00;101723.78;5057015;28;20040;-34
2022/02/01 08:37:29;;;;;;;31.83;24.30;;;;;;;3.69;100.00;101728.16;5056511;28;20078;-35
2022/02/01 08:39:55;;;;;;;31.70;24.70;;;;;;;3.69;100.00;101718.31;5057389;28;20036;-34
2022/02/01 08:42:20;;;;;;;33.93;24.57;;;;;;;3.71;100.00;101713.63;5056626;28;20028;-34
2022/02/01 08:44:46;;;;;;;28.35;21.95;;;;;;;3.73;100.00;101713.47;5056886;28;20278;-35
2022/02/01 08:47:13;;;;;;;26.80;21.55;;;;;;;3.74;100.00;101715.97;5056482;28;20028;-35
2022/02/01 08:49:40;;;;;;;27.77;21.77;;;;;;;3.74;100.00;101702.59;5056180;28;20040;-35
2022/02/01 08:52:10;;;;;;;26.95;23.10;;;;;;;3.74;100.00;101696.41;5056274;28;20082;-35
2022/02/01 08:54:37;;;;;;;30.05;23.50;;;;;;;3.70;100.00;101677.16;5056608;28;20021;-35
2022/02/01 08:57:24;;;;;;;27.00;22.27;;;;;;;3.76;100.00;101691.75;5056567;28;20035;-35
2022/02/01 08:59:56;;;;;;;27.55;23.00;;;;;;;3.77;100.00;101672.84;5056212;28;20021;-35
2022/02/01 09:02:24;;;;;;;28.83;22.70;;;;;;;3.79;100.00;101667.31;5056219;28;20029;-34
2022/02/01 09:04:49;;;;;;;28.67;22.80;;;;;;;3.72;100.00;101639.56;5056476;28;20028;-36
2022/02/01 09:07:15;;;;;;;28.17;23.13;;;;;;;3.65;100.00;101612.63;5056197;28;20033;-35
2022/02/01 09:09:41;;;;;;;28.85;23.15;;;;;;;3.79;100.00;101630.69;5055877;28;20256;-35
2022/02/01 09:12:07;;;;;;;26.83;22.23;;;;;;;3.84;100.00;101624.84;5056274;28;20021;-35
2022/02/01 09:14:32;;;;;;;;;;;;;;;3.86;100.00;101623.69;5056667;28;20123;-35
2022/02/01 09:17:00;;;;;;;28.60;22.65;;;;;;;3.86;100.00;101617.50;5056466;28;20003;-35
2022/02/01 09:19:29;;;;;;;30.35;24.27;;;;;;;3.86;100.00;101606.78;5056447;28;20025;-35
2022/02/01 09:21:55;;;;;;;31.20;23.20;;;;;;;3.76;100.00;101593.59;5055913;28;20036;-35
2022/02/01 09:24:20;;;;;;;26.55;23.13;;;;;;;3.88;100.00;101600.25;5055343;28;20054;-35
2022/02/01 09:26:46;;;;;;;28.15;23.85;;;;;;;3.85;100.00;101584.53;5055773;28;20377;-35
2022/02/01 09:29:12;;;;;;;29.33;23.58;;;;;;;3.92;100.00;101583.88;5056026;28;20540;-35
2022/02/01 09:31:37;;;;;;;27.00;22.33;;;;;;;3.91;100.00;101572.34;5055731;28;20105;-35
2022/02/01 09:34:05;;;;;;;27.90;23.50;;;;;;;4.01;100.00;101582.88;5055143;28;20283;-35
2022/02/01 09:36:30;;;;;;;27.58;23.73;;;;;;;4.03;100.00;101576.31;5054949;28;20036;-34
2022/02/01 09:38:56;;;;;;;29.40;24.55;;;;;;;3.96;100.00;101551.25;5055828;28;20021;-35
2022/02/01 09:41:23;;;;;;;27.08;23.80;;;;;;;4.03;100.00;101546.88;5055141;28;20462;-35
2022/02/01 09:43:48;;;;;;;29.30;24.80;;;;;;;4.04;100.00;101520.94;5056035;28;20449;-35
2022/02/01 09:46:14;;;;;;;30.07;25.80;;;;;;;4.07;100.00;101512.59;5055715;28;20060;-35
2022/02/01 09:48:39;;;;;;;29.17;24.97;;;;;;;4.17;100.00;101513.22;5055923;28;20051;-35
2022/02/01 09:51:08;;;;;;;30.73;24.03;;;;;;;4.19;100.00;101516.53;5055908;28;20492;-35
2022/02/01 09:53:34;;;;;;;30.20;25.02;;;;;;;4.22;100.00;101500.16;5055222;28;20081;-39
2022/02/01 09:55:59;;;;;;;29.60;24.13;;;;;;;4.27;100.00;101484.41;5055044;28;20025;-35
2022/02/01 09:58:33;;;;;;;31.60;26.30;;;;;;;4.30;100.00;101492.09;5055236;28;20039;-35
2022/02/01 10:01:01;;;;;;;30.63;25.08;;;;;;;4.35;100.00;101494.25;5055492;28;20440;-35
2022/02/01 10:03:26;;;;;;;32.38;24.48;;;;;;;4.34;100.00;101489.88;5054944;28;20029;-36
2022/02/01 10:06:07;;;;;;;30.10;24.27;;;;;;;4.42;100.00;101476.47;5055232;28;20029;-36
2022/02/01 10:08:33;;;;;;;30.65;25.70;;;;;;;4.48;100.00;101473.06;5054762;28;20469;-36
2022/02/01 10:10:59;;;;;;;33.92;25.25;;;;;;;4.53;100.00;101494.81;5055245;28;20063;-36
2022/02/01 10:13:24;;;;;;;28.80;24.08;;;;;;;4.57;100.00;101485.41;5054811;28;20453;-36
2022/02/01 10:16:12;;;;;;;29.97;23.00;;;;;;;4.62;100.00;101495.59;5055159;28;20070;-36
2022/02/01 10:18:37;;;;;;;29.85;24.25;;;;;;;4.66;100.00;101478.19;5054555;28;20025;-36
2022/02/01 10:21:08;;;;;;;27.00;22.10;;;;;;;4.70;100.00;101490.22;5054595;28;20021;-36
2022/02/01 10:23:35;;;;;;;28.60;22.85;;;;;;;4.66;100.00;101470.13;5055584;28;20025;-36
2022/02/01 10:26:09;;;;;;;26.33;22.80;;;;;;;4.70;100.00;101470.63;5054706;28;20029;-36
2022/02/01 10:31:59;;;;;;;26.90;20.92;;;;;;;4.84;100.00;101483.25;5055088;28;20041;-36
2022/02/01 10:36:54;;;;;;;;;;;;;;;4.93;100.00;101492.06;5055369;28;20115;-36
2022/02/01 10:39:28;;;;;;;24.00;18.77;;;;;;;4.98;100.00;101481.63;5054411;28;20054;-36
2022/02/01 10:42:02;;;;;;;29.92;19.02;;;;;;;5.01;100.00;101479.44;5055209;28;20354;-36
2022/02/01 10:44:44;;;;;;;24.17;17.95;;;;;;;5.06;100.00;101460.97;5055168;28;20029;-36
2022/02/01 10:47:12;;;;;;;21.90;16.63;;;;;;;5.09;100.00;101457.09;5053883;28;20074;-36
2022/02/01 10:49:38;;;;;;;21.20;16.98;;;;;;;5.06;100.00;101450.25;5054322;28;20037;-36
2022/02/01 10:52:05;;;;;;;20.50;17.15;;;;;;;5.18;100.00;101460.56;5054415;28;20036;-36
2022/02/01 10:54:33;;;;;;;20.45;14.75;;;;;;;5.18;100.00;101456.03;5054596;28;20039;-36
2022/02/01 10:56:59;;;;;;;18.75;14.60;;;;;;;5.26;100.00;101457.78;5054491;28;20032;-36
2022/02/01 10:59:25;;;;;;;22.55;14.00;;;;;;;5.25;100.00;101446.25;5054079;28;20069;-36
2022/02/01 11:01:54;;;;;;;19.83;13.82;;;;;;;5.32;100.00;101438.28;5053632;28;20033;-36
2022/02/01 11:04:21;;;;;;;17.65;12.48;;;;;;;5.36;100.00;101445.78;5054686;28;20036;-36
2022/02/01 11:06:50;;;;;;;17.13;12.88;;;;;;;5.36;100.00;101432.38;5054373;28;20025;-36
2022/02/01 11:09:18;;;;;;;17.23;11.18;;;;;;;5.37;100.00;101426.03;5053564;28;20100;-36
2022/02/01 11:11:55;;;;;;;17.05;12.77;;;;;;;5.49;100.00;101426.41;5054066;28;20441;-36
2022/02/01 11:14:25;;;;;;;18.48;12.20;;;;;;;5.53;100.00;101418.81;5054249;28;20032;-36
2022/02/01 11:17:14;;;;;;;15.68;11.48;;;;;;;5.57;100.00;101409.41;5053767;28;20036;-36
2022/02/01 11:19:51;;;;;;;15.65;11.45;;;;;;;5.63;100.00;101414.03;5054158;28;20033;-36
2022/02/01 11:22:29;;;;;;;13.65;9.43;;;;;;;5.68;100.00;101408.94;5053656;28;20021;-36
2022/02/01 11:25:25;;;;;;;15.30;9.80;;;;;;;5.72;100.00;101410.22;5053825;28;20029;-36
2022/02/01 11:28:10;;;;;;;11.88;8.93;;;;;;;5.67;100.00;101380.44;5054038;28;20064;-36
2022/02/01 11:30:40;;;;;;;13.35;9.05;;;;;;;5.75;100.00;101384.84;5053777;28;20040;-35
2022/02/01 11:33:07;;;;;;;10.82;8.43;;;;;;;5.82;100.00;101394.69;5054271;28;20083;-36
2022/02/01 11:35:33;;;;;;;13.45;8.65;;;;;;;5.79;100.00;101386.16;5053791;28;20362;-36
2022/02/01 11:38:08;;;;;;;9.73;7.90;;;;;;;5.90;100.00;101405.31;5053934;28;20044;-36
2022/02/01 11:40:38;;;;;;;9.90;7.55;;;;;;;5.93;100.00;101404.97;5053052;28;20025;-35
2022/02/01 11:43:06;;;;;;;11.68;8.15;;;;;;;5.94;100.00;101398.56;5053302;28;20120;-36
2022/02/01 11:45:39;;;;;;;9.35;7.53;;;;;;;5.98;100.00;101403.56;5054046;28;20402;-36
2022/02/01 11:48:16;;;;;;;10.63;7.10;;;;;;;6.01;100.00;101396.00;5053223;28;20055;-36
2022/02/01 11:50:51;;;;;;;7.88;6.15;;;;;;;5.97;100.00;101378.59;5054288;28;20115;-36
2022/02/01 11:53:23;;;;;;;12.90;7.28;;;;;;;6.07;100.00;101379.13;5052935;28;20107;-36
2022/02/01 11:55:50;;;;;;;8.15;5.85;;;;;;;6.10;100.00;101381.44;5053829;28;20411;-36
2022/02/01 11:58:27;;;;;;;9.57;6.78;;;;;;;6.14;100.00;101377.34;5052111;28;20051;-36
2022/02/01 12:00:53;;;;;;;10.88;6.05;;;;;;;6.06;100.00;101350.59;5053281;28;20040;-36
2022/02/01 12:03:20;;;;;;;10.73;6.63;;;;;;;6.16;100.00;101361.88;5053019;28;20392;-37
2022/02/01 12:05:53;;;;;;;7.97;6.32;;;;;;;6.19;100.00;101357.97;5052914;28;20027;-36
2022/02/01 12:08:19;;;;;;;8.93;6.18;;;;;;;6.14;100.00;101344.28;5053154;28;20083;-36
2022/02/01 12:10:50;;;;;;;13.18;7.18;;;;;;;6.26;100.00;101358.06;5052967;28;20029;-36
2022/02/01 12:13:17;;;;;;;13.52;7.22;;;;;;;6.30;100.00;101362.88;5052649;28;20469;-36
2022/02/01 12:15:44;;;;;;;9.70;7.20;;;;;;;6.32;100.00;101360.81;5053023;28;20056;-36
2022/02/01 12:18:09;;;;;;;10.30;7.18;;;;;;;6.33;100.00;101362.47;5053585;28;20099;-36
2022/02/01 12:20:37;;;;;;;14.70;7.67;;;;;;;6.29;100.00;101338.84;5053261;28;20460;-36
2022/02/01 12:23:14;;;;;;;13.30;8.15;;;;;;;6.37;100.00;101353.00;5052911;28;20037;-36
2022/02/01 12:25:39;;;;;;;13.23;8.52;;;;;;;6.37;100.00;101353.00;5052800;28;20033;-36
2022/02/01 12:28:19;;;;;;;17.77;7.90;;;;;;;6.34;100.00;101326.50;5052801;28;20392;-36
2022/02/01 12:30:45;;;;;;;17.27;8.55;;;;;;;6.43;100.00;101314.63;5053322;28;20033;-36
2022/02/01 12:33:41;;;;;;;16.60;8.20;;;;;;;6.50;100.00;101308.50;5052912;28;20060;-36
2022/02/01 12:36:07;;;;;;;17.77;8.68;;;;;;;6.53;100.00;101303.56;5051856;28;20040;-36
2022/02/01 12:38:32;;;;;;;22.27;9.23;;;;;;;6.54;100.00;101307.94;5053295;28;20106;-36
2022/02/01 12:41:11;;;;;;;23.93;8.77;;;;;;;6.59;100.00;101310.88;5053054;28;20032;-36
2022/02/01 12:43:54;;;;;;;27.92;9.98;;;;;;;6.63;100.00;101308.59;5053434;28;20037;-36
2022/02/01 12:46:39;;;;;;;16.83;6.82;;;;;;;6.56;100.00;101280.84;5053119;28;20026;-36
2022/02/01 12:49:04;;;;;;;18.23;7.55;;;;;;;6.67;100.00;101286.53;5052850;28;20031;-36
2022/02/01 12:51:49;;;;;;;22.00;7.20;;;;;;;6.70;100.00;101275.38;5052418;28;20025;-36
2022/02/01 12:54:25;;;;;;;20.67;8.55;;;;;;;6.72;100.00;101288.63;5052467;28;20061;-36
2022/02/01 12:57:12;;;;;;;17.92;7.10;;;;;;;6.76;100.00;101287.22;5052849;28;20018;-36